Time;durP1;ratioP1;P1;durP2;ratioP2;P2;SDS_P1;SDS_P2;PMS_P1;PMS_P2;Temp;Humidity;BMP_temperature;BMP_pressure;BME280_temperature;BME280_humidity;BME280_pressure;Samples;Min_cycle;Max_cycle;Signal;HPM_P1;HPM_P2
2022/04/29 00:00:27;;;;;;;;;;;;;;;;;;4997377;28;21138;-62
2022/04/29 00:02:53;;;;;;;;;;;;;;;;;;4995743;28;19909;-62
2022/04/29 00:05:19;;;;;;;;;;;;;;;;;;4979534;28;20446;-62
2022/04/29 00:07:45;;;;;;;;;;;;;;;;;;4995546;28;20356;-63
2022/04/29 00:10:12;;;;;;;;;;;;;;;;;;5000007;28;19928;-63
2022/04/29 00:12:38;;;;;;;;;;;;;;;;;;4977612;28;20465;-62
2022/04/29 00:15:04;;;;;;;;;;;;;;;;;;5000119;28;19909;-63
2022/04/29 00:17:30;;;;;;;;;;;;;;;;;;4995965;28;19917;-62
2022/04/29 00:19:56;;;;;;;;;;;;;;;;;;4998521;28;19924;-63
2022/04/29 00:22:22;;;;;;;;;;;;;;;;;;4996442;28;19936;-63
2022/04/29 00:24:48;;;;;;;;;;;;;;;;;;4993530;28;20324;-62
2022/04/29 00:27:14;;;;;;;;;;;;;;;;;;4997049;28;19924;-62
2022/04/29 00:29:40;;;;;;;;;;;;;;;;;;4994712;28;20353;-62
2022/04/29 00:32:06;;;;;;;;;;;;;;;;;;4997094;28;19916;-62
2022/04/29 00:34:32;;;;;;;;;;;;;;;;;;4995607;28;19920;-62
2022/04/29 00:36:58;;;;;;;;;;;;;;;;;;4981828;28;20332;-62
2022/04/29 00:39:24;;;;;;;;;;;;;;;;;;5004264;28;19920;-62
2022/04/29 00:41:50;;;;;;;;;;;;;;;;;;4985516;28;21137;-62
2022/04/29 00:44:16;;;;;;;;;;;;;;;;;;5004242;28;19917;-62
2022/04/29 00:46:42;;;;;;;;;;;;;;;;;;4988819;28;19912;-62
2022/04/29 00:49:08;;;;;;;;;;;;;;;;;;4983950;28;19918;-62
2022/04/29 00:51:34;;;;;;;;;;;;;;;;;;5002661;28;20524;-62
2022/04/29 00:54:00;;;;;;;;;;;;;;;;;;5005107;28;19912;-62
2022/04/29 00:56:26;;;;;;;;;;;;;;;;;;5004731;28;20467;-62
2022/04/29 00:58:52;;;;;;;;;;;;;;;;;;5004260;28;19968;-62
2022/04/29 01:01:20;;;;;;;;;;;;;;;;;;5008953;28;19939;-62
2022/04/29 01:03:46;;;;;;;;;;;;;;;;;;4995011;28;20346;-62
2022/04/29 01:06:12;;;;;;;;;;;;;;;;;;4996854;28;19917;-62
2022/04/29 01:08:38;;;;;;;;;;;;;;;;;;4991771;28;19967;-62
2022/04/29 01:11:04;;;;;;;;;;;;;;;;;;4998607;28;19920;-62
2022/04/29 01:13:30;;;;;;;;;;;;;;;;;;4995406;28;19920;-66
2022/04/29 01:15:57;;;;;;;;;;;;;;;;;;4998536;28;19917;-62
2022/04/29 01:18:23;;;;;;;;;;;;;;;;;;4993609;28;19917;-62
2022/04/29 01:20:49;;;;;;;;;;;;;;;;;;4993851;28;25200;-63
2022/04/29 01:23:15;;;;;;;;;;;;;;;;;;4996269;28;20501;-62
2022/04/29 01:25:41;;;;;;;;;;;;;;;;;;4977377;28;19971;-62
2022/04/29 01:28:07;;;;;;;;;;;;;;;;;;4980387;28;19919;-62
2022/04/29 01:30:33;;;;;;;;;;;;;;;;;;4991347;28;19913;-62
2022/04/29 01:32:59;;;;;;;;;;;;;;;;;;4996021;28;19915;-63
2022/04/29 01:35:25;;;;;;;;;;;;;;;;;;4994066;28;19920;-62
2022/04/29 01:37:51;;;;;;;;;;;;;;;;;;4994831;28;19917;-62
2022/04/29 01:40:17;;;;;;;;;;;;;;;;;;4995175;28;19990;-62
2022/04/29 01:42:43;;;;;;;;;;;;;;;;;;4991427;28;20373;-62
2022/04/29 01:45:09;;;;;;;;;;;;;;;;;;4993513;28;20131;-62
2022/04/29 01:47:35;;;;;;;;;;;;;;;;;;4988559;28;20639;-63
2022/04/29 01:50:01;;;;;;;;;;;;;;;;;;4992508;28;20233;-62
2022/04/29 01:52:27;;;;;;;;;;;;;;;;;;4990066;28;19917;-62
2022/04/29 01:54:53;;;;;;;;;;;;;;;;;;4990284;28;20055;-62
2022/04/29 01:57:19;;;;;;;;;;;;;;;;;;4996719;28;20434;-62
2022/04/29 01:59:45;;;;;;;;;;;;;;;;;;4993187;28;19913;-62
2022/04/29 02:02:11;;;;;;;;;;;;;;;;;;4977741;28;20366;-62
2022/04/29 02:04:37;;;;;;;;;;;;;;;;;;4995851;28;20004;-62
2022/04/29 02:07:03;;;;;;;;;;;;;;;;;;4997474;28;20245;-62
2022/04/29 02:09:29;;;;;;;;;;;;;;;;;;4992581;28;19913;-62
2022/04/29 02:12:05;;;;;;;;;;;;;;;;;;4973330;28;20034;-62
2022/04/29 02:14:31;;;;;;;;;;;;;;;;;;4987871;28;19940;-61
2022/04/29 02:16:57;;;;;;;;;;;;;;;;;;4974743;28;19972;-61
2022/04/29 02:19:23;;;;;;;;;;;;;;;;;;4999940;28;20177;-61
2022/04/29 02:21:49;;;;;;;;;;;;;;;;;;4976914;28;19924;-63
2022/04/29 02:24:15;;;;;;;;;;;;;;;;;;5002993;28;19917;-64
2022/04/29 02:26:41;;;;;;;;;;;;;;;;;;4995342;28;20641;-62
2022/04/29 02:29:07;;;;;;;;;;;;;;;;;;4998501;28;19913;-61
2022/04/29 02:31:33;;;;;;;;;;;;;;;;;;4997899;28;19912;-61
2022/04/29 02:33:59;;;;;;;;;;;;;;;;;;4996844;28;19920;-61
2022/04/29 02:36:25;;;;;;;;;;;;;;;;;;4994141;28;19989;-61
2022/04/29 02:38:51;;;;;;;;;;;;;;;;;;4993697;28;19918;-63
2022/04/29 02:41:17;;;;;;;;;;;;;;;;;;4997507;28;19917;-63
2022/04/29 02:43:44;;;;;;;;;;;;;;;;;;4993845;28;20424;-62
2022/04/29 02:46:10;;;;;;;;;;;;;;;;;;4994015;28;19996;-63
2022/04/29 02:48:36;;;;;;;;;;;;;;;;;;4992228;28;20244;-62
2022/04/29 02:51:04;;;;;;;;;;;;;;;;;;4998259;28;20371;-61
2022/04/29 02:53:30;;;;;;;;;;;;;;;;;;4996219;28;20344;-61
2022/04/29 02:55:56;;;;;;;;;;;;;;;;;;4978575;28;20412;-64
2022/04/29 02:58:22;;;;;;;;;;;;;;;;;;4993703;28;20739;-63
2022/04/29 03:00:48;;;;;;;;;;;;;;;;;;4974821;28;19913;-61
2022/04/29 03:03:14;;;;;;;;;;;;;;;;;;4992130;28;19913;-61
2022/04/29 03:05:40;;;;;;;;;;;;;;;;;;4991394;28;20119;-61
2022/04/29 03:08:06;;;;;;;;;;;;;;;;;;4999594;28;19924;-61
2022/04/29 03:10:33;;;;;;;;;;;;;;;;;;4989129;28;19956;-63
2022/04/29 03:12:59;;;;;;;;;;;;;;;;;;4993071;28;19920;-61
2022/04/29 03:15:25;;;;;;;;;;;;;;;;;;4997364;28;19913;-62
2022/04/29 03:20:36;;;;;;;;;;;;;;;;;;4990065;28;19925;-62
2022/04/29 03:23:02;;;;;;;;;;;;;;;;;;4999962;28;19913;-62
2022/04/29 03:25:28;;;;;;;;;;;;;;;;;;4998920;28;20363;-62
2022/04/29 03:27:54;;;;;;;;;;;;;;;;;;4994240;28;19909;-62
2022/04/29 03:30:20;;;;;;;;;;;;;;;;;;4982893;28;19916;-62
2022/04/29 03:32:46;;;;;;;;;;;;;;;;;;4993719;28;20419;-61
2022/04/29 03:35:12;;;;;;;;;;;;;;;;;;5001302;28;19910;-62
2022/04/29 03:37:38;;;;;;;;;;;;;;;;;;4994710;28;20366;-61
2022/04/29 03:40:04;;;;;;;;;;;;;;;;;;4998720;28;19956;-61
2022/04/29 03:42:30;;;;;;;;;;;;;;;;;;4998057;28;19982;-61
2022/04/29 03:44:56;;;;;;;;;;;;;;;;;;4978184;28;19966;-62
2022/04/29 03:47:22;;;;;;;;;;;;;;;;;;4999199;28;19916;-61
2022/04/29 03:49:49;;;;;;;;;;;;;;;;;;4997731;28;19917;-61
2022/04/29 03:52:15;;;;;;;;;;;;;;;;;;4999881;28;19916;-62
2022/04/29 03:54:41;;;;;;;;;;;;;;;;;;4994974;28;20391;-61
2022/04/29 03:57:08;;;;;;;;;;;;;;;;;;4997690;28;20012;-62
2022/04/29 03:59:34;;;;;;;;;;;;;;;;;;4996416;28;19945;-61
2022/04/29 04:02:00;;;;;;;;;;;;;;;;;;4998020;28;20008;-62
2022/04/29 04:04:26;;;;;;;;;;;;;;;;;;4997865;28;20363;-62
2022/04/29 04:06:52;;;;;;;;;;;;;;;;;;4974611;28;19920;-62
2022/04/29 04:09:18;;;;;;;;;;;;;;;;;;4994517;28;19913;-62
2022/04/29 04:11:44;;;;;;;;;;;;;;;;;;4993239;28;19914;-62
2022/04/29 04:14:10;;;;;;;;;;;;;;;;;;4999073;28;19913;-62
2022/04/29 04:16:36;;;;;;;;;;;;;;;;;;4993442;28;20678;-61
2022/04/29 04:19:02;;;;;;;;;;;;;;;;;;4999549;28;19923;-62
2022/04/29 04:21:28;;;;;;;;;;;;;;;;;;4997549;28;19917;-62
2022/04/29 04:23:54;;;;;;;;;;;;;;;;;;4995580;28;19943;-62
2022/04/29 04:26:20;;;;;;;;;;;;;;;;;;4996526;28;20445;-62
2022/04/29 04:28:46;;;;;;;;;;;;;;;;;;4995125;28;19913;-62
2022/04/29 04:31:12;;;;;;;;;;;;;;;;;;4997743;28;19917;-61
2022/04/29 04:33:38;;;;;;;;;;;;;;;;;;4975253;28;20952;-61
2022/04/29 04:36:04;;;;;;;;;;;;;;;;;;4997587;28;19972;-64
2022/04/29 04:38:32;;;;;;;;;;;;;;;;;;4995927;28;19917;-61
2022/04/29 04:40:59;;;;;;;;;;;;;;;;;;4997307;28;20248;-62
2022/04/29 04:43:25;;;;;;;;;;;;;;;;;;4998681;28;19913;-62
2022/04/29 04:45:51;;;;;;;;;;;;;;;;;;4996735;28;21052;-62
2022/04/29 04:48:17;;;;;;;;;;;;;;;;;;4999017;28;20589;-61
2022/04/29 04:50:43;;;;;;;;;;;;;;;;;;4996794;28;19921;-61
2022/04/29 04:53:09;;;;;;;;;;;;;;;;;;4997979;28;20734;-62
2022/04/29 04:55:35;;;;;;;;;;;;;;;;;;4996229;28;20030;-61
2022/04/29 04:58:01;;;;;;;;;;;;;;;;;;4982295;28;20367;-61
2022/04/29 05:00:26;;;;;;;;;;;;;;;;;;4998256;28;19920;-63
2022/04/29 05:02:52;;;;;;;;;;;;;;;;;;4992287;28;20011;-62
2022/04/29 05:05:18;;;;;;;;;;;;;;;;;;4982337;28;19913;-62
2022/04/29 05:07:44;;;;;;;;;;;;;;;;;;4995635;28;19910;-61
2022/04/29 05:10:10;;;;;;;;;;;;;;;;;;4978350;28;20343;-63
2022/04/29 05:12:36;;;;;;;;;;;;;;;;;;5000869;28;19920;-65
2022/04/29 05:15:02;;;;;;;;;;;;;;;;;;5001117;28;20027;-65
2022/04/29 05:17:28;;;;;;;;;;;;;;;;;;4978850;28;19948;-65
2022/04/29 05:19:54;;;;;;;;;;;;;;;;;;4994231;28;19924;-62
2022/04/29 05:22:20;;;;;;;;;;;;;;;;;;4996999;28;19923;-62
2022/04/29 05:24:46;;;;;;;;;;;;;;;;;;4993432;28;19920;-62
2022/04/29 05:27:12;;;;;;;;;;;;;;;;;;4999582;28;19913;-62
2022/04/29 05:29:38;;;;;;;;;;;;;;;;;;4996385;28;20043;-63
2022/04/29 05:32:04;;;;;;;;;;;;;;;;;;4992409;28;19955;-63
2022/04/29 05:34:32;;;;;;;;;;;;;;;;;;4996394;28;19956;-63
2022/04/29 05:36:58;;;;;;;;;;;;;;;;;;4998014;28;20005;-63
2022/04/29 05:42:15;;;;;;;;;;;;;;;;;;4997066;28;20337;-62
2022/04/29 05:44:41;;;;;;;;;;;;;;;;;;4992075;28;20482;-63
2022/04/29 05:47:07;;;;;;;;;;;;;;;;;;4992974;28;21328;-63
2022/04/29 05:49:33;;;;;;;;;;;;;;;;;;4996327;28;19917;-63
2022/04/29 05:52:00;;;;;;;;;;;;;;;;;;4996329;28;19983;-63
2022/04/29 05:54:26;;;;;;;;;;;;;;;;;;4996397;28;20252;-63
2022/04/29 05:56:52;;;;;;;;;;;;;;;;;;4975788;28;19917;-63
2022/04/29 05:59:18;;;;;;;;;;;;;;;;;;4981097;28;19921;-63
2022/04/29 06:01:44;;;;;;;;;;;;;;;;;;4979671;28;20369;-63
2022/04/29 06:04:09;;;;;;;;;;;;;;;;;;4981932;28;19917;-62
2022/04/29 06:06:35;;;;;;;;;;;;;;;;;;4977691;28;19920;-63
2022/04/29 06:09:01;;;;;;;;;;;;;;;;;;4979352;28;19914;-63
2022/04/29 06:11:27;;;;;;;;;;;;;;;;;;4983525;28;20020;-62
2022/04/29 06:13:53;;;;;;;;;;;;;;;;;;4980521;28;19924;-63
2022/04/29 06:16:19;;;;;;;;;;;;;;;;;;4982767;28;19991;-63
2022/04/29 06:18:45;;;;;;;;;;;;;;;;;;4977851;28;19948;-63
2022/04/29 06:21:11;;;;;;;;;;;;;;;;;;4982229;28;19917;-63
2022/04/29 06:23:37;;;;;;;;;;;;;;;;;;4981317;28;20227;-63
2022/04/29 06:26:03;;;;;;;;;;;;;;;;;;4969256;28;19917;-63
2022/04/29 06:28:29;;;;;;;;;;;;;;;;;;4981478;28;19913;-63
2022/04/29 06:30:55;;;;;;;;;;;;;;;;;;4984776;28;19913;-63
2022/04/29 06:33:21;;;;;;;;;;;;;;;;;;4987271;28;19920;-63
2022/04/29 06:35:50;;;;;;;;;;;;;;;;;;4983119;28;19913;-62
2022/04/29 06:38:16;;;;;;;;;;;;;;;;;;4985679;28;19921;-63
2022/04/29 06:40:42;;;;;;;;;;;;;;;;;;4979758;28;20263;-63
2022/04/29 06:43:08;;;;;;;;;;;;;;;;;;4967649;28;19990;-63
2022/04/29 06:45:34;;;;;;;;;;;;;;;;;;4981559;28;19914;-63
2022/04/29 06:47:59;;;;;;;;;;;;;;;;;;4985190;28;20000;-62
2022/04/29 06:50:25;;;;;;;;;;;;;;;;;;4966548;28;19917;-62
2022/04/29 06:52:52;;;;;;;;;;;;;;;;;;4961815;28;19948;-62
2022/04/29 06:55:18;;;;;;;;;;;;;;;;;;4982199;28;19932;-62
2022/04/29 06:57:46;;;;;;;;;;;;;;;;;;4986844;28;19921;-63
2022/04/29 07:00:12;;;;;;;;;;;;;;;;;;4999585;28;19917;-65
2022/04/29 07:02:46;;;;;;;;;;;;;;;;;;4993663;28;19929;-63
2022/04/29 07:05:12;;;;;;;;;;;;;;;;;;5000459;28;19935;-63
2022/04/29 07:07:38;;;;;;;;;;;;;;;;;;4995978;28;19917;-63
2022/04/29 07:10:04;;;;;;;;;;;;;;;;;;5000596;28;19920;-63
2022/04/29 07:12:33;;;;;;;;;;;;;;;;;;5000786;28;19913;-63
2022/04/29 07:14:59;;;;;;;;;;;;;;;;;;4983843;28;20279;-63
2022/04/29 07:17:25;;;;;;;;;;;;;;;;;;4984897;28;19999;-65
2022/04/29 07:19:52;;;;;;;;;;;;;;;;;;4995758;28;19921;-65
2022/04/29 07:22:18;;;;;;;;;;;;;;;;;;4979809;28;19923;-62
2022/04/29 07:24:44;;;;;;;;;;;;;;;;;;4973083;28;20333;-62
2022/04/29 07:27:10;;;;;;;;;;;;;;;;;;5003940;28;19913;-65
2022/04/29 07:29:36;;;;;;;;;;;;;;;;;;5003527;28;19991;-62
2022/04/29 07:32:02;;;;;;;;;;;;;;;;;;5003013;28;20354;-62
2022/04/29 07:42:42;;;;;;;;;;;;;;;;;;5000665;28;19936;-63
2022/04/29 07:45:08;;;;;;;;;;;;;;;;;;5008497;28;20359;-63
2022/04/29 07:47:36;;;;;;;;;;;;;;;;;;5000587;28;20383;-65
2022/04/29 07:50:02;;;;;;;;;;;;;;;;;;5003619;28;20004;-63
2022/04/29 07:52:28;;;;;;;;;;;;;;;;;;5003295;28;20187;-63
2022/04/29 07:54:54;;;;;;;;;;;;;;;;;;4981826;28;20347;-63
2022/04/29 07:57:20;;;;;;;;;;;;;;;;;;4989458;28;19919;-63
2022/04/29 07:59:46;;;;;;;;;;;;;;;;;;4986529;28;20328;-63
2022/04/29 08:02:11;;;;;;;;;;;;;;;;;;5011827;28;19966;-63
2022/04/29 08:04:37;;;;;;;;;;;;;;;;;;5002641;28;20378;-62
2022/04/29 08:07:03;;;;;;;;;;;;;;;;;;5006001;28;19920;-63
2022/04/29 08:09:29;;;;;;;;;;;;;;;;;;5005543;28;19913;-62
2022/04/29 08:11:56;;;;;;;;;;;;;;;;;;5007945;28;19921;-62
2022/04/29 08:14:22;;;;;;;;;;;;;;;;;;4984222;28;20279;-63
2022/04/29 08:16:49;;;;;;;;;;;;;;;;;;5004306;28;19913;-62
2022/04/29 08:19:15;;;;;;;;;;;;;;;;;;5004709;28;19935;-62
2022/04/29 08:21:41;;;;;;;;;;;;;;;;;;5002731;28;19917;-62
2022/04/29 08:24:07;;;;;;;;;;;;;;;;;;4986108;28;20319;-64
2022/04/29 08:26:33;;;;;;;;;;;;;;;;;;4978335;28;19921;-62
2022/04/29 08:28:59;;;;;;;;;;;;;;;;;;4978665;28;20260;-63
2022/04/29 08:31:25;;;;;;;;;;;;;;;;;;5003765;28;19920;-66
2022/04/29 08:33:51;;;;;;;;;;;;;;;;;;4996577;28;20413;-65
2022/04/29 08:36:17;;;;;;;;;;;;;;;;;;5003197;28;19912;-64
2022/04/29 08:38:43;;;;;;;;;;;;;;;;;;5002296;28;19935;-64
2022/04/29 08:41:09;;;;;;;;;;;;;;;;;;4983977;28;20621;-64
2022/04/29 08:43:36;;;;;;;;;;;;;;;;;;5001033;28;19921;-63
2022/04/29 08:46:02;;;;;;;;;;;;;;;;;;5006465;28;19963;-64
2022/04/29 08:48:28;;;;;;;;;;;;;;;;;;5005194;28;21012;-64
2022/04/29 08:50:54;;;;;;;;;;;;;;;;;;5002390;28;19917;-64
2022/04/29 08:53:20;;;;;;;;;;;;;;;;;;5005911;28;20376;-63
2022/04/29 08:58:38;;;;;;;;;;;;;;;;;;5001955;28;20023;-60
2022/04/29 09:01:04;;;;;;;;;;;;;;;;;;5005066;28;19913;-63
2022/04/29 09:03:30;;;;;;;;;;;;;;;;;;5000146;28;20363;-63
2022/04/29 09:05:56;;;;;;;;;;;;;;;;;;5002814;28;19966;-65
2022/04/29 09:08:22;;;;;;;;;;;;;;;;;;5001071;28;19917;-62
2022/04/29 09:10:48;;;;;;;;;;;;;;;;;;4997628;28;19916;-63
2022/04/29 09:13:14;;;;;;;;;;;;;;;;;;5007208;28;19928;-64
2022/04/29 09:15:40;;;;;;;;;;;;;;;;;;4981191;28;19924;-64
2022/04/29 09:18:06;;;;;;;;;;;;;;;;;;5003342;28;19917;-65
2022/04/29 09:20:32;;;;;;;;;;;;;;;;;;5001010;28;19924;-63
2022/04/29 09:22:59;;;;;;;;;;;;;;;;;;5004195;28;19909;-63
2022/04/29 09:25:25;;;;;;;;;;;;;;;;;;5004616;28;19913;-64
2022/04/29 09:27:51;;;;;;;;;;;;;;;;;;4983346;28;20297;-64
2022/04/29 09:30:17;;;;;;;;;;;;;;;;;;5002703;28;20028;-64
2022/04/29 09:32:43;;;;;;;;;;;;;;;;;;4992973;28;20011;-63
2022/04/29 09:35:09;;;;;;;;;;;;;;;;;;5000329;28;19916;-63
2022/04/29 09:37:35;;;;;;;;;;;;;;;;;;4994740;28;20024;-63
2022/04/29 09:40:01;;;;;;;;;;;;;;;;;;5007244;28;19917;-63
2022/04/29 09:42:27;;;;;;;;;;;;;;;;;;5004266;28;19919;-63
2022/04/29 09:44:53;;;;;;;;;;;;;;;;;;4994108;28;20598;-64
2022/04/29 09:47:21;;;;;;;;;;;;;;;;;;4999612;28;19913;-63
2022/04/29 09:49:47;;;;;;;;;;;;;;;;;;4996297;28;19924;-64
2022/04/29 09:52:13;;;;;;;;;;;;;;;;;;4981763;28;19955;-63
2022/04/29 09:54:39;;;;;;;;;;;;;;;;;;4995308;28;19916;-63
2022/04/29 09:57:05;;;;;;;;;;;;;;;;;;4997203;28;19917;-64
2022/04/29 09:59:31;;;;;;;;;;;;;;;;;;4994001;28;19992;-63
2022/04/29 10:01:57;;;;;;;;;;;;;;;;;;4999002;28;19919;-63
2022/04/29 10:04:24;;;;;;;;;;;;;;;;;;5000950;28;20379;-63
2022/04/29 10:06:50;;;;;;;;;;;;;;;;;;4996643;28;20933;-63
2022/04/29 10:09:16;;;;;;;;;;;;;;;;;;5003080;28;19917;-65
2022/04/29 10:11:42;;;;;;;;;;;;;;;;;;4995387;28;19913;-63
2022/04/29 10:14:08;;;;;;;;;;;;;;;;;;4980341;28;20363;-63
2022/04/29 10:16:34;;;;;;;;;;;;;;;;;;5002187;28;19917;-63
2022/04/29 10:21:44;;;;;;;;;;;;;;;;;;4995094;28;20164;-63
2022/04/29 10:24:10;;;;;;;;;;;;;;;;;;4998390;28;20324;-64
2022/04/29 10:26:36;;;;;;;;;;;;;;;;;;4979922;28;20390;-63
2022/04/29 10:29:02;;;;;;;;;;;;;;;;;;4994041;28;19909;-63
2022/04/29 10:31:31;;;;;;;;;;;;;;;;;;4999855;28;20024;-64
2022/04/29 10:33:58;;;;;;;;;;;;;;;;;;5003101;28;19913;-64
2022/04/29 10:36:26;;;;;;;;;;;;;;;;;;5008786;28;19913;-64
2022/04/29 10:38:51;;;;;;;;;;;;;;;;;;5003711;28;19921;-63
2022/04/29 10:41:18;;;;;;;;;;;;;;;;;;5004923;28;19917;-64
2022/04/29 10:43:44;;;;;;;;;;;;;;;;;;4997156;28;19928;-65
2022/04/29 10:46:10;;;;;;;;;;;;;;;;;;5001768;28;19914;-63
2022/04/29 10:48:36;;;;;;;;;;;;;;;;;;4999721;28;19975;-64
2022/04/29 10:51:02;;;;;;;;;;;;;;;;;;4998217;28;19940;-63
2022/04/29 10:53:28;;;;;;;;;;;;;;;;;;5000173;28;20432;-66
2022/04/29 10:55:54;;;;;;;;;;;;;;;;;;4994120;28;20824;-63
2022/04/29 10:58:20;;;;;;;;;;;;;;;;;;4997619;28;19921;-64
2022/04/29 11:00:46;;;;;;;;;;;;;;;;;;4975989;28;20611;-64
2022/04/29 11:03:12;;;;;;;;;;;;;;;;;;4975264;28;19913;-63
2022/04/29 11:05:38;;;;;;;;;;;;;;;;;;5004489;28;19912;-64
2022/04/29 11:08:05;;;;;;;;;;;;;;;;;;4998843;28;19909;-63
2022/04/29 11:10:31;;;;;;;;;;;;;;;;;;4995892;28;20004;-64
2022/04/29 11:12:57;;;;;;;;;;;;;;;;;;4977123;28;19917;-64
2022/04/29 11:15:26;;;;;;;;;;;;;;;;;;4995481;28;20603;-63
2022/04/29 11:17:52;;;;;;;;;;;;;;;;;;4995654;28;19917;-63
2022/04/29 11:20:21;;;;;;;;;;;;;;;;;;4996407;28;19952;-64
2022/04/29 11:25:32;;;;;;;;;;;;;;;;;;4999076;28;19962;-64
2022/04/29 11:27:58;;;;;;;;;;;;;;;;;;5005716;28;19916;-65
2022/04/29 11:30:24;;;;;;;;;;;;;;;;;;4990446;28;19921;-65
2022/04/29 11:32:50;;;;;;;;;;;;;;;;;;4959555;28;21555;-64
2022/04/29 11:35:16;;;;;;;;;;;;;;;;;;5002124;28;19917;-65
2022/04/29 11:37:42;;;;;;;;;;;;;;;;;;4999000;28;20294;-65
2022/04/29 11:40:08;;;;;;;;;;;;;;;;;;5013347;28;19913;-65
2022/04/29 11:42:34;;;;;;;;;;;;;;;;;;5011746;28;19921;-65
2022/04/29 11:45:00;;;;;;;;;;;;;;;;;;4989916;28;20348;-65
2022/04/29 11:47:26;;;;;;;;;;;;;;;;;;5009084;28;19971;-65
2022/04/29 11:49:52;;;;;;;;;;;;;;;;;;5005941;28;20274;-65
2022/04/29 11:52:18;;;;;;;;;;;;;;;;;;5012109;28;19913;-66
2022/04/29 11:54:44;;;;;;;;;;;;;;;;;;5007688;28;19917;-65
2022/04/29 11:57:10;;;;;;;;;;;;;;;;;;4992157;28;19920;-65
2022/04/29 11:59:36;;;;;;;;;;;;;;;;;;5002658;28;19965;-65
2022/04/29 12:02:02;;;;;;;;;;;;;;;;;;5007183;28;19913;-65
2022/04/29 12:04:28;;;;;;;;;;;;;;;;;;4985160;28;20016;-66
2022/04/29 12:06:54;;;;;;;;;;;;;;;;;;4999149;28;20378;-67
2022/04/29 12:09:20;;;;;;;;;;;;;;;;;;4954173;28;20446;-66
2022/04/29 12:11:46;;;;;;;;;;;;;;;;;;4950613;28;19913;-65
2022/04/29 12:14:13;;;;;;;;;;;;;;;;;;4952652;28;19914;-65
2022/04/29 12:16:39;;;;;;;;;;;;;;;;;;4953763;28;19964;-65
2022/04/29 12:19:05;;;;;;;;;;;;;;;;;;4941793;28;19920;-64
2022/04/29 12:21:32;;;;;;;;;;;;;;;;;;4938002;28;20394;-66
2022/04/29 12:23:59;;;;;;;;;;;;;;;;;;4971271;28;19913;-65
2022/04/29 12:26:25;;;;;;;;;;;;;;;;;;4942641;28;19963;-66
2022/04/29 12:28:51;;;;;;;;;;;;;;;;;;4932818;28;20484;-66
2022/04/29 12:36:54;;;;;;;;;;;;;;;;;;4925239;28;19920;-65
2022/04/29 12:39:24;;;;;;;;;;;;;;;;;;4962559;28;20567;-63
2022/04/29 12:41:50;;;;;;;;;;;;;;;;;;4952227;28;22632;-68
2022/04/29 12:47:01;;;;;;;;;;;;;;;;;;5018428;28;20382;-65
2022/04/29 12:49:27;;;;;;;;;;;;;;;;;;5023282;28;19956;-66
2022/04/29 12:51:54;;;;;;;;;;;;;;;;;;5017329;28;20008;-66
2022/04/29 12:54:20;;;;;;;;;;;;;;;;;;4997202;28;20330;-66
2022/04/29 12:56:51;;;;;;;;;;;;;;;;;;5014532;28;20303;-66
2022/04/29 12:59:17;;;;;;;;;;;;;;;;;;5015212;28;20404;-66
2022/04/29 13:01:43;;;;;;;;;;;;;;;;;;5010838;28;19919;-67
2022/04/29 13:04:09;;;;;;;;;;;;;;;;;;5016448;28;19913;-67
2022/04/29 13:06:35;;;;;;;;;;;;;;;;;;5012374;28;20382;-65
2022/04/29 13:09:01;;;;;;;;;;;;;;;;;;5012625;28;19947;-65
2022/04/29 13:11:29;;;;;;;;;;;;;;;;;;4993911;28;19939;-66
2022/04/29 13:13:55;;;;;;;;;;;;;;;;;;5007860;28;19909;-65
2022/04/29 13:16:21;;;;;;;;;;;;;;;;;;4993321;28;20004;-68
2022/04/29 13:18:47;;;;;;;;;;;;;;;;;;4987607;28;20348;-68
2022/04/29 13:21:13;;;;;;;;;;;;;;;;;;5017222;28;19925;-66
2022/04/29 13:23:39;;;;;;;;;;;;;;;;;;4994381;28;20438;-65
2022/04/29 13:26:05;;;;;;;;;;;;;;;;;;4989726;28;19913;-64
2022/04/29 13:28:31;;;;;;;;;;;;;;;;;;5012328;28;20055;-64
2022/04/29 13:30:57;;;;;;;;;;;;;;;;;;5011836;28;19965;-64
2022/04/29 13:33:23;;;;;;;;;;;;;;;;;;5012153;28;19913;-63
2022/04/29 13:35:49;;;;;;;;;;;;;;;;;;5015130;28;20062;-67
2022/04/29 13:38:15;;;;;;;;;;;;;;;;;;5010089;28;20488;-67
2022/04/29 13:40:41;;;;;;;;;;;;;;;;;;5008429;28;20713;-65
2022/04/29 13:43:08;;;;;;;;;;;;;;;;;;4991416;28;19920;-67
2022/04/29 13:45:36;;;;;;;;;;;;;;;;;;5014637;28;20355;-67
2022/04/29 13:48:03;;;;;;;;;;;;;;;;;;5012410;28;20515;-66
2022/04/29 13:50:28;;;;;;;;;;;;;;;;;;5017833;28;19916;-67
2022/04/29 13:53:14;;;;;;;;;;;;;;;;;;5001824;28;19971;-68
2022/04/29 13:55:40;;;;;;;;;;;;;;;;;;5002695;28;20012;-68
2022/04/29 13:58:07;;;;;;;;;;;;;;;;;;5008094;28;19972;-68
2022/04/29 14:00:33;;;;;;;;;;;;;;;;;;4984553;28;19913;-68
2022/04/29 14:02:59;;;;;;;;;;;;;;;;;;5014787;28;20010;-68
2022/04/29 14:05:27;;;;;;;;;;;;;;;;;;5015937;28;19959;-66
2022/04/29 14:07:53;;;;;;;;;;;;;;;;;;4992207;28;20363;-66
2022/04/29 14:10:19;;;;;;;;;;;;;;;;;;4998090;28;20220;-66
2022/04/29 14:12:45;;;;;;;;;;;;;;;;;;4991457;28;19997;-66
2022/04/29 14:15:12;;;;;;;;;;;;;;;;;;4987389;28;20182;-66
2022/04/29 14:17:38;;;;;;;;;;;;;;;;;;5010124;28;19916;-66
2022/04/29 14:20:04;;;;;;;;;;;;;;;;;;5016380;28;19916;-66
2022/04/29 14:22:30;;;;;;;;;;;;;;;;;;5011251;28;20386;-66
2022/04/29 14:24:56;;;;;;;;;;;;;;;;;;5010755;28;19963;-67
2022/04/29 14:27:24;;;;;;;;;;;;;;;;;;4988286;28;19920;-66
2022/04/29 14:29:49;;;;;;;;;;;;;;;;;;4999137;28;19925;-67
2022/04/29 14:32:16;;;;;;;;;;;;;;;;;;4996472;28;19913;-67
2022/04/29 14:34:42;;;;;;;;;;;;;;;;;;5002980;28;19913;-67
2022/04/29 14:37:08;;;;;;;;;;;;;;;;;;5008254;28;19915;-65
2022/04/29 14:39:34;;;;;;;;;;;;;;;;;;4983280;28;19917;-66
2022/04/29 14:42:00;;;;;;;;;;;;;;;;;;4996933;28;20007;-64
2022/04/29 14:44:27;;;;;;;;;;;;;;;;;;5004095;28;19913;-65
2022/04/29 14:46:53;;;;;;;;;;;;;;;;;;4998362;28;19913;-65
2022/04/29 14:49:19;;;;;;;;;;;;;;;;;;4999382;28;20279;-65
2022/04/29 14:51:45;;;;;;;;;;;;;;;;;;5004454;28;20381;-65
2022/04/29 14:54:18;;;;;;;;;;;;;;;;;;5013076;28;19913;-67
2022/04/29 14:56:44;;;;;;;;;;;;;;;;;;5018593;28;20090;-66
2022/04/29 14:59:10;;;;;;;;;;;;;;;;;;5010142;28;19926;-66
2022/04/29 15:01:36;;;;;;;;;;;;;;;;;;5005671;28;19913;-66
2022/04/29 15:04:04;;;;;;;;;;;;;;;;;;4990097;28;19913;-66
2022/04/29 15:06:30;;;;;;;;;;;;;;;;;;5011998;28;19913;-66
2022/04/29 15:17:10;;;;;;;;;;;;;;;;;;5009279;28;20654;-65
2022/04/29 15:19:36;;;;;;;;;;;;;;;;;;5009654;28;20531;-67
2022/04/29 15:22:02;;;;;;;;;;;;;;;;;;5011285;28;20402;-66
2022/04/29 15:24:28;;;;;;;;;;;;;;;;;;5011725;28;19920;-66
2022/04/29 15:26:54;;;;;;;;;;;;;;;;;;5006545;28;19948;-66
2022/04/29 15:29:20;;;;;;;;;;;;;;;;;;5002467;28;20014;-66
2022/04/29 15:31:46;;;;;;;;;;;;;;;;;;5007162;28;20103;-66
2022/04/29 15:34:15;;;;;;;;;;;;;;;;;;5012918;28;19913;-67
2022/04/29 15:36:41;;;;;;;;;;;;;;;;;;4990136;28;19913;-66
2022/04/29 15:39:07;;;;;;;;;;;;;;;;;;5010030;28;19959;-67
2022/04/29 15:41:33;;;;;;;;;;;;;;;;;;5002374;28;19967;-66
2022/04/29 15:43:59;;;;;;;;;;;;;;;;;;5011770;28;20417;-66
2022/04/29 15:46:25;;;;;;;;;;;;;;;;;;5007653;28;19921;-66
2022/04/29 15:48:52;;;;;;;;;;;;;;;;;;5001095;28;19995;-66
2022/04/29 15:51:17;;;;;;;;;;;;;;;;;;4987890;28;19913;-65
2022/04/29 15:53:43;;;;;;;;;;;;;;;;;;5007915;28;19967;-66
2022/04/29 15:56:12;;;;;;;;;;;;;;;;;;4994097;28;20020;-66
2022/04/29 15:58:39;;;;;;;;;;;;;;;;;;5005843;28;20391;-70
2022/04/29 16:01:05;;;;;;;;;;;;;;;;;;5005818;28;20046;-70
2022/04/29 16:03:31;;;;;;;;;;;;;;;;;;4990220;28;20039;-71
2022/04/29 16:05:57;;;;;;;;;;;;;;;;;;4986120;28;19955;-71
2022/04/29 16:08:23;;;;;;;;;;;;;;;;;;5006917;28;20099;-69
2022/04/29 16:10:49;;;;;;;;;;;;;;;;;;4983770;28;19946;-69
2022/04/29 16:13:15;;;;;;;;;;;;;;;;;;5008551;28;19913;-68
2022/04/29 16:15:41;;;;;;;;;;;;;;;;;;5015000;28;20397;-68
2022/04/29 16:20:52;;;;;;;;;;;;;;;;;;5002888;28;19929;-69
2022/04/29 16:26:10;;;;;;;;;;;;;;;;;;5014667;28;20399;-69
2022/04/29 16:28:37;;;;;;;;;;;;;;;;;;5001748;28;19913;-69
2022/04/29 16:31:03;;;;;;;;;;;;;;;;;;4990998;28;19920;-69
2022/04/29 16:33:29;;;;;;;;;;;;;;;;;;5013191;28;19913;-70
2022/04/29 16:35:55;;;;;;;;;;;;;;;;;;4987263;28;19925;-71
2022/04/29 16:38:25;;;;;;;;;;;;;;;;;;4994186;28;19917;-70
2022/04/29 16:40:52;;;;;;;;;;;;;;;;;;5003377;28;20258;-70
2022/04/29 16:43:19;;;;;;;;;;;;;;;;;;5017509;28;20397;-71
2022/04/29 16:45:46;;;;;;;;;;;;;;;;;;5009507;28;20350;-69
2022/04/29 16:48:13;;;;;;;;;;;;;;;;;;4999057;28;20035;-70
2022/04/29 16:50:39;;;;;;;;;;;;;;;;;;5004240;28;20004;-70
2022/04/29 16:53:05;;;;;;;;;;;;;;;;;;4999724;28;19948;-70
2022/04/29 16:55:31;;;;;;;;;;;;;;;;;;5001179;28;19913;-70
2022/04/29 17:00:42;;;;;;;;;;;;;;;;;;4995366;28;20080;-70
2022/04/29 17:03:13;;;;;;;;;;;;;;;;;;4999377;28;20322;-69
2022/04/29 17:05:39;;;;;;;;;;;;;;;;;;4986600;28;20326;-71
2022/04/29 17:08:05;;;;;;;;;;;;;;;;;;4993948;28;19944;-70
2022/04/29 17:10:34;;;;;;;;;;;;;;;;;;5010757;28;20129;-71
2022/04/29 17:13:01;;;;;;;;;;;;;;;;;;5001745;28;20425;-70
2022/04/29 17:15:26;;;;;;;;;;;;;;;;;;5004206;28;19960;-71
2022/04/29 17:17:52;;;;;;;;;;;;;;;;;;4997368;28;20003;-70
2022/04/29 17:20:19;;;;;;;;;;;;;;;;;;4981491;28;19924;-70
2022/04/29 17:22:45;;;;;;;;;;;;;;;;;;4997435;28;19913;-71
2022/04/29 17:25:11;;;;;;;;;;;;;;;;;;4995679;28;20372;-71